Verona, WI (53593)

7:54 PM CST on December 04, 2016 (GMT -0600)
KWIVERON7 | | Change Station

Elev 994 ft 42.98 °N, 89.52 °W | Updated 5 seconds ago

Overcast
Overcast
31.5 °F
Feels Like 32 °F
N
1.0
Wind Variable Wind from South
Gusts 0.0 mph

Today
High -- | Low -- °F
--% Chance of Precip.
Yesterday
High -- | Low -- °F
Precip. -- in
Pressure 29.85 in
Visibility 4.0 miles
Clouds Overcast 400 ft
Windchill 32 °F
Dew Point 31 °F
Humidity 97%
Rainfall 0.00 in
Snow Depth Not available.
7:13 AM 4:23 PM
Waxing Crescent, 27% visible
METAR KC29 050135Z AUTO 22006KT 4SM OVC004 00/00 A2985 RMK AO1 T00000000
Pressure 29.85 in
Visibility 4.0 miles
Clouds Overcast 400 ft
Windchill 32 °F
Dew Point 31 °F
Humidity 97%
Rainfall 0.00 in
Snow Depth Not available.
7:13 AM 4:23 PM
Waxing Crescent, 27% visible
METAR KC29 050135Z AUTO 22006KT 4SM OVC004 00/00 A2985 RMK AO1 T00000000

10-Day Weather Forecast

Almanac

Astronomy

Dec. 04, 2016 Rise Set
Actual Time
Civil Twilight
Nautical Twilight
Astronomical Twilight
Moon
Length of Visible Light
Length of Day
Tomorrow will be .
, % of the Moon is Illuminated

Today's Extremes

State Highs State Lows

Community

WunderPhotos

Upload Photos

1,955,744 photos uploaded!

WunderBlog® & News

Nearby

Air Quality

  Air Quality AQ Index Pollutant
Not available.

Snow Depth

Station Depth Elevation

Earthquake Activity

City Distance Mag. Time & Date
Minimum magnitude displayed is 2.5.

Coastal Water Temperatures

Place Temperature

Stations

Nearby Weather Stations

Station Location Temp. Windchill Dew Point Humidity Wind Precip. Elev Updated Type
                   

Watches & Warnings

There are currently no watches in effect.